Time;durP1;ratioP1;P1;durP2;ratioP2;P2;SDS_P1;SDS_P2;PMS_P1;PMS_P2;Temp;Humidity;BMP_temperature;BMP_pressure;BME280_temperature;BME280_humidity;BME280_pressure;Samples;Min_cycle;Max_cycle;Signal;HPM_P1;HPM_P2
2022/01/09 00:00:07;;;;;;;14.75;10.63;;;5.50;99.90;;;;;;5036236;28;20052;-91
2022/01/09 00:02:33;;;;;;;16.10;11.13;;;5.40;99.90;;;;;;5035969;28;20081;-92
2022/01/09 00:04:58;;;;;;;14.75;11.27;;;5.30;99.90;;;;;;5036629;28;20481;-90
2022/01/09 00:07:24;;;;;;;17.63;12.35;;;5.40;99.90;;;;;;5019486;28;20092;-92
2022/01/09 00:09:50;;;;;;;18.13;12.60;;;5.50;99.90;;;;;;5019523;28;20139;-91
2022/01/09 00:12:15;;;;;;;18.60;12.50;;;5.50;99.90;;;;;;5035807;28;20096;-89
2022/01/09 00:14:41;;;;;;;16.70;11.13;;;5.50;99.90;;;;;;5039338;28;20053;-89
2022/01/09 00:17:07;;;;;;;16.00;11.68;;;5.40;99.90;;;;;;5019411;28;20088;-91
2022/01/09 00:19:32;;;;;;;17.60;12.23;;;5.50;99.90;;;;;;5035975;28;20519;-92
2022/01/09 00:21:58;;;;;;;23.52;14.60;;;5.60;99.90;;;;;;5019641;28;20046;-89
2022/01/09 00:24:24;;;;;;;17.42;12.15;;;5.70;99.90;;;;;;5034636;28;20042;-89
2022/01/09 00:26:49;;;;;;;16.77;12.15;;;5.50;99.90;;;;;;5035591;28;20045;-91
2022/01/09 00:29:15;;;;;;;20.73;13.27;;;5.60;99.90;;;;;;5035336;28;20041;-90
2022/01/09 00:31:41;;;;;;;18.50;12.30;;;5.60;99.90;;;;;;5052911;28;20385;-90
2022/01/09 00:34:06;;;;;;;19.00;12.38;;;5.60;99.90;;;;;;5019038;28;20042;-90
2022/01/09 00:36:32;;;;;;;17.38;12.20;;;5.60;99.90;;;;;;5019164;28;20076;-91
2022/01/09 00:38:58;;;;;;;15.68;11.07;;;5.60;99.90;;;;;;5035524;28;20081;-90
2022/01/09 00:41:24;;;;;;;20.83;12.68;;;5.60;99.90;;;;;;5051958;28;20041;-90
2022/01/09 00:43:50;;;;;;;15.80;11.25;;;5.60;99.90;;;;;;5019092;28;20609;-91
2022/01/09 00:46:17;;;;;;;15.07;10.68;;;5.60;99.90;;;;;;5035494;28;20511;-91
2022/01/09 00:48:43;;;;;;;20.27;13.32;;;5.60;99.90;;;;;;5035658;28;20057;-90
2022/01/09 00:51:08;;;;;;;15.25;11.23;;;5.70;99.90;;;;;;5035833;28;20049;-91
2022/01/09 00:53:34;;;;;;;14.40;10.80;;;5.70;99.90;;;;;;5035268;28;20140;-91
2022/01/09 00:56:00;;;;;;;14.85;10.32;;;5.70;99.90;;;;;;5051769;28;20052;-91
2022/01/09 00:58:25;;;;;;;14.52;9.95;;;5.80;99.90;;;;;;5034594;28;20128;-91
2022/01/09 01:00:52;;;;;;;16.02;11.10;;;5.60;99.90;;;;;;5034946;28;20045;-90
2022/01/09 01:03:19;;;;;;;19.52;12.65;;;5.60;99.90;;;;;;5035074;28;20045;-90
2022/01/09 01:05:44;;;;;;;16.88;11.32;;;5.60;99.90;;;;;;5018892;28;20041;-89
2022/01/09 01:08:10;;;;;;;16.83;12.23;;;5.70;99.90;;;;;;5034915;28;20447;-90
2022/01/09 01:10:36;;;;;;;15.20;11.10;;;5.60;99.90;;;;;;5051403;28;20132;-90
2022/01/09 01:13:02;;;;;;;17.92;13.18;;;5.60;99.90;;;;;;5034140;28;20099;-90
2022/01/09 01:15:28;;;;;;;20.85;14.25;;;5.70;99.90;;;;;;5018564;28;20397;-91
2022/01/09 01:17:54;;;;;;;20.90;14.15;;;5.70;99.90;;;;;;5018294;28;20048;-91
2022/01/09 01:20:22;;;;;;;19.30;13.13;;;5.70;99.90;;;;;;5051300;28;20046;-91
2022/01/09 01:22:50;;;;;;;18.25;13.18;;;5.70;99.90;;;;;;5002408;28;20041;-90
2022/01/09 01:25:21;;;;;;;20.58;14.15;;;5.60;99.90;;;;;;5034551;28;20057;-88
2022/01/09 01:27:47;;;;;;;21.10;13.90;;;5.70;99.90;;;;;;5033986;28;20052;-91
2022/01/09 01:30:13;;;;;;;18.92;12.73;;;5.80;99.90;;;;;;5018940;28;20136;-89
2022/01/09 01:32:40;;;;;;;25.45;15.75;;;5.90;99.90;;;;;;5034400;28;20084;-90
2022/01/09 01:35:07;;;;;;;23.55;15.05;;;6.00;99.90;;;;;;5050788;28;20075;-90
2022/01/09 01:37:34;;;;;;;20.05;14.15;;;5.90;99.90;;;;;;5018560;28;20084;-90
2022/01/09 01:39:59;;;;;;;19.95;13.88;;;5.90;99.90;;;;;;5034064;28;20132;-90
2022/01/09 01:42:25;;;;;;;21.45;14.55;;;5.80;99.90;;;;;;5034293;28;20085;-91
2022/01/09 01:44:52;;;;;;;21.42;14.68;;;5.90;99.90;;;;;;5017873;28;20081;-91
2022/01/09 01:47:21;;;;;;;22.20;15.18;;;5.90;99.90;;;;;;5017400;28;20504;-90
2022/01/09 01:49:48;;;;;;;19.90;14.18;;;5.80;99.90;;;;;;5033900;28;20067;-90
2022/01/09 01:52:23;;;;;;;32.42;17.92;;;5.90;99.90;;;;;;5034267;28;20132;-90
2022/01/09 01:54:48;;;;;;;23.70;15.50;;;6.10;99.90;;;;;;5034219;28;20049;-90
2022/01/09 01:57:14;;;;;;;22.95;15.65;;;6.10;99.90;;;;;;5033817;28;20473;-90
2022/01/09 01:59:40;;;;;;;23.90;15.48;;;6.30;99.90;;;;;;5049887;28;20107;-89
2022/01/09 02:02:06;;;;;;;19.63;14.48;;;6.40;99.90;;;;;;5034254;28;20108;-88
2022/01/09 02:04:32;;;;;;;19.52;14.75;;;6.50;99.90;;;;;;5050903;28;20041;-91
2022/01/09 02:06:58;;;;;;;20.55;14.02;;;6.60;99.90;;;;;;5033842;28;20041;-89
2022/01/09 02:09:24;;;;;;;22.58;16.00;;;6.60;99.90;;;;;;5050439;28;20045;-90
2022/01/09 02:11:50;;;;;;;28.55;16.08;;;6.70;99.90;;;;;;5033339;28;20053;-91
2022/01/09 02:14:16;;;;;;;26.02;16.08;;;6.70;99.90;;;;;;5050508;28;20058;-90
2022/01/09 02:16:43;;;;;;;23.35;15.27;;;6.70;99.90;;;;;;5033745;28;20140;-91
2022/01/09 02:19:13;;;;;;;37.60;18.35;;;6.70;99.90;;;;;;5033709;28;20041;-90
2022/01/09 02:21:46;;;;;;;39.35;19.50;;;6.70;99.90;;;;;;5002296;28;20053;-89
2022/01/09 02:24:17;;;;;;;28.92;17.27;;;6.80;99.90;;;;;;5017198;28;20520;-89
2022/01/09 02:26:43;;;;;;;20.83;13.63;;;6.80;99.90;;;;;;5033572;28;20378;-88
2022/01/09 02:29:08;;;;;;;55.20;22.50;;;6.80;99.90;;;;;;5049433;28;20046;-88
2022/01/09 02:31:35;;;;;;;50.83;22.52;;;6.70;99.90;;;;;;5033282;28;20042;-88
2022/01/09 02:34:01;;;;;;;66.75;23.83;;;6.70;99.90;;;;;;5033279;28;20083;-88
2022/01/09 02:36:27;;;;;;;30.50;18.42;;;6.70;99.90;;;;;;5049865;28;20498;-88
2022/01/09 02:38:53;;;;;;;61.75;24.08;;;6.60;99.90;;;;;;5050016;28;20060;-90
2022/01/09 02:41:18;;;;;;;64.47;22.95;;;6.60;99.90;;;;;;5016999;28;20378;-90
2022/01/09 02:43:44;;;;;;;57.72;23.42;;;6.80;99.90;;;;;;5033463;28;20045;-89
2022/01/09 02:48:54;;;;;;;32.75;17.65;;;6.70;99.90;;;;;;5037344;28;20089;-90
2022/01/09 02:51:20;;;;;;;41.90;19.48;;;6.70;99.90;;;;;;5037468;28;20084;-89
2022/01/09 02:53:48;;;;;;;47.63;18.73;;;6.70;99.90;;;;;;5053674;28;20052;-89
2022/01/09 02:56:15;;;;;;;44.80;17.55;;;6.60;99.90;;;;;;5021474;28;20045;-90
2022/01/09 02:58:42;;;;;;;56.35;18.45;;;6.40;99.90;;;;;;5037028;28;20050;-90
2022/01/09 03:01:11;;;;;;;50.92;16.98;;;6.50;99.90;;;;;;5037723;28;20041;-89
2022/01/09 03:03:37;;;;;;;46.85;16.52;;;6.60;99.90;;;;;;5038117;28;20054;-90
2022/01/09 03:06:03;;;;;;;68.53;18.67;;;6.60;99.90;;;;;;5022695;28;20038;-89
2022/01/09 03:08:30;;;;;;;61.63;21.90;;;6.60;99.90;;;;;;5037793;28;20052;-89
2022/01/09 03:10:56;;;;;;;72.65;22.77;;;6.60;99.90;;;;;;5036959;28;20046;-91
2022/01/09 03:13:22;;;;;;;79.60;23.42;;;6.50;99.90;;;;;;5036458;28;20057;-90
2022/01/09 03:15:48;;;;;;;31.67;16.63;;;6.50;99.90;;;;;;5037646;28;20400;-91
2022/01/09 03:18:13;;;;;;;99.93;23.45;;;6.60;99.90;;;;;;5021175;28;20053;-91
2022/01/09 03:20:40;;;;;;;68.65;21.05;;;6.70;99.90;;;;;;5037009;28;20045;-91
2022/01/09 03:23:06;;;;;;;77.50;22.15;;;6.80;99.90;;;;;;5036927;28;20081;-90
2022/01/09 03:25:32;;;;;;;52.40;15.88;;;6.80;99.90;;;;;;5036874;28;20077;-90
2022/01/09 03:27:58;;;;;;;55.85;16.80;;;6.80;99.90;;;;;;5036302;28;20071;-90
2022/01/09 03:30:25;;;;;;;63.17;16.90;;;6.80;99.90;;;;;;5036418;28;20041;-89
2022/01/09 03:32:53;;;;;;;68.05;18.42;;;6.80;99.90;;;;;;5053523;28;20171;-90
2022/01/09 03:35:24;;;;;;;63.38;17.30;;;6.60;99.90;;;;;;5036335;28;20073;-89
2022/01/09 03:37:51;;;;;;;61.22;16.73;;;6.70;99.90;;;;;;5036640;28;20046;-89
2022/01/09 03:40:19;;;;;;;66.50;17.67;;;6.80;99.90;;;;;;5052914;28;20037;-89
2022/01/09 03:42:51;;;;;;;71.57;15.70;;;6.70;99.90;;;;;;5036156;28;20056;-88
2022/01/09 03:45:17;;;;;;;70.50;15.30;;;6.70;99.90;;;;;;5036911;28;20208;-88
2022/01/09 03:47:43;;;;;;;50.42;10.27;;;6.70;99.90;;;;;;5035821;28;20136;-86
2022/01/09 03:50:11;;;;;;;48.80;8.05;;;6.70;99.90;;;;;;5036148;28;20041;-88
2022/01/09 03:52:39;;;;;;;61.33;8.18;;;6.80;99.90;;;;;;5035615;28;20055;-89
2022/01/09 03:55:07;;;;;;;72.75;7.35;;;6.80;99.90;;;;;;5036110;28;20144;-89
2022/01/09 03:57:33;;;;;;;59.60;7.18;;;6.80;99.90;;;;;;5035847;28;20045;-89
2022/01/09 03:59:59;;;;;;;69.55;6.95;;;6.90;99.90;;;;;;5035716;28;20152;-88
2022/01/09 04:02:25;;;;;;;81.70;7.53;;;6.90;99.90;;;;;;5035971;28;20536;-89
2022/01/09 04:04:50;;;;;;;68.80;6.72;;;7.10;99.90;;;;;;5035990;28;20045;-88
2022/01/09 04:07:17;;;;;;;95.90;8.15;;;7.10;99.90;;;;;;5035621;28;20042;-88
2022/01/09 04:09:45;;;;;;;84.32;8.27;;;7.20;99.90;;;;;;5035245;28;20049;-88
2022/01/09 04:12:30;;;;;;;98.28;8.05;;;7.20;99.90;;;;;;5018688;28;20140;-87
2022/01/09 04:14:56;;;;;;;74.53;7.25;;;7.20;99.90;;;;;;5035309;28;20477;-87
2022/01/09 04:17:37;;;;;;;108.00;9.63;;;7.20;99.90;;;;;;5035288;28;20084;-88
2022/01/09 04:20:05;;;;;;;76.72;6.43;;;7.30;99.90;;;;;;5035946;28;20456;-87
2022/01/09 04:22:31;;;;;;;92.78;8.02;;;7.20;99.90;;;;;;5035042;28;20117;-87
2022/01/09 04:24:57;;;;;;;68.95;8.20;;;7.20;99.90;;;;;;5035271;28;20089;-87
2022/01/09 04:27:22;;;;;;;83.63;7.25;;;7.20;99.90;;;;;;5034479;28;20045;-87
2022/01/09 04:29:48;;;;;;;80.00;7.57;;;7.20;99.90;;;;;;5034416;28;20484;-87
2022/01/09 04:32:14;;;;;;;75.95;7.45;;;7.30;99.90;;;;;;5034946;28;20093;-87
2022/01/09 04:34:39;;;;;;;58.95;6.10;;;7.10;99.90;;;;;;5034672;28;20477;-87
2022/01/09 04:37:05;;;;;;;64.68;7.13;;;7.10;99.90;;;;;;5034714;28;20049;-87
2022/01/09 04:39:31;;;;;;;60.78;5.68;;;7.10;99.90;;;;;;5034673;28;20055;-87
2022/01/09 04:41:57;;;;;;;61.28;6.03;;;7.00;99.90;;;;;;5034618;28;20053;-87
2022/01/09 04:44:24;;;;;;;65.75;6.32;;;7.00;99.90;;;;;;5034811;28;20059;-87
2022/01/09 04:47:01;;;;;;;83.05;6.40;;;7.10;99.90;;;;;;5034784;28;20068;-87
2022/01/09 04:49:34;;;;;;;50.33;5.43;;;7.20;99.90;;;;;;5034839;28;20415;-88
2022/01/09 04:52:02;;;;;;;56.13;5.18;;;7.10;99.90;;;;;;5034878;28;20093;-87
2022/01/09 04:54:28;;;;;;;62.25;6.47;;;7.10;99.90;;;;;;5034514;28;20041;-88
2022/01/09 04:56:53;;;;;;;56.20;6.25;;;7.10;99.90;;;;;;5001757;28;20107;-88
2022/01/09 04:59:19;;;;;;;47.92;5.63;;;7.00;99.90;;;;;;5017664;28;20056;-88
2022/01/09 05:01:45;;;;;;;65.30;5.10;;;7.00;99.90;;;;;;5001566;28;20052;-87
2022/01/09 05:04:10;;;;;;;61.70;5.55;;;7.00;99.90;;;;;;5017951;28;20087;-88
2022/01/09 05:06:37;;;;;;;62.65;4.63;;;7.00;99.90;;;;;;5035062;28;20041;-88
2022/01/09 05:09:03;;;;;;;51.03;4.88;;;7.00;99.90;;;;;;5034311;28;20057;-88
2022/01/09 05:11:28;;;;;;;49.00;4.72;;;7.00;99.90;;;;;;5018231;28;20068;-88
2022/01/09 05:13:54;;;;;;;54.83;5.30;;;7.10;99.90;;;;;;5033742;28;20049;-88
2022/01/09 05:16:20;;;;;;;61.05;5.28;;;7.00;99.90;;;;;;5018007;28;20049;-88
2022/01/09 05:18:54;;;;;;;45.45;4.53;;;7.10;99.90;;;;;;5034507;28;20132;-90
2022/01/09 05:21:20;;;;;;;60.45;5.18;;;7.10;99.90;;;;;;5034375;28;20133;-89
2022/01/09 05:23:46;;;;;;;53.63;4.72;;;7.20;99.90;;;;;;5033721;28;20124;-91
2022/01/09 05:26:12;;;;;;;52.20;5.63;;;7.10;99.90;;;;;;5033857;28;20110;-88
2022/01/09 05:28:37;;;;;;;53.13;5.70;;;7.10;99.90;;;;;;5017252;28;20548;-89
2022/01/09 05:31:03;;;;;;;48.25;4.88;;;7.00;99.90;;;;;;5018091;28;20389;-89
2022/01/09 05:33:29;;;;;;;47.53;5.72;;;7.10;99.90;;;;;;5034251;28;20060;-90
2022/01/09 05:35:54;;;;;;;40.08;4.53;;;7.00;99.90;;;;;;5034351;28;20134;-87
2022/01/09 05:38:20;;;;;;;44.85;4.85;;;7.00;99.90;;;;;;5034134;28;20095;-89
2022/01/09 05:40:46;;;;;;;55.17;5.38;;;6.90;99.90;;;;;;5034110;28;20042;-89
2022/01/09 05:43:12;;;;;;;48.70;5.18;;;7.10;99.90;;;;;;5034089;28;20140;-89
2022/01/09 05:45:38;;;;;;;49.78;5.03;;;7.10;99.90;;;;;;5017521;28;20048;-89
2022/01/09 05:48:04;;;;;;;42.05;4.50;;;7.10;99.90;;;;;;5034247;28;20477;-89
2022/01/09 05:50:30;;;;;;;52.25;5.07;;;7.10;99.90;;;;;;5033978;28;20390;-90
2022/01/09 05:52:56;;;;;;;38.60;4.35;;;7.00;99.90;;;;;;5033904;28;20085;-89
2022/01/09 05:55:21;;;;;;;39.75;4.60;;;6.90;99.90;;;;;;5034073;28;20485;-91
2022/01/09 05:57:47;;;;;;;42.40;4.78;;;7.00;99.90;;;;;;5033568;28;20049;-90
2022/01/09 06:00:14;;;;;;;28.92;3.70;;;6.90;99.90;;;;;;5034084;28;20037;-89
2022/01/09 06:02:41;;;;;;;40.92;4.07;;;6.80;99.90;;;;;;5017729;28;20447;-89
2022/01/09 06:05:08;;;;;;;50.40;4.70;;;6.80;99.90;;;;;;5050382;28;20481;-90
2022/01/09 06:07:37;;;;;;;36.67;4.35;;;6.80;99.90;;;;;;5017721;28;20447;-90
2022/01/09 06:10:03;;;;;;;44.92;4.70;;;6.80;99.90;;;;;;5034000;28;20056;-89
2022/01/09 06:12:28;;;;;;;45.10;4.93;;;6.80;99.90;;;;;;5016912;28;20053;-90
2022/01/09 06:14:54;;;;;;;36.90;3.15;;;6.70;99.90;;;;;;5033531;28;20085;-91
2022/01/09 06:17:20;;;;;;;48.13;4.53;;;6.80;99.90;;;;;;5017594;28;20495;-91
2022/01/09 06:19:46;;;;;;;45.42;3.60;;;6.80;99.90;;;;;;5033751;28;20045;-91
2022/01/09 06:22:17;;;;;;;41.85;3.92;;;6.90;99.90;;;;;;5017338;28;20052;-90
2022/01/09 06:24:47;;;;;;;30.27;3.47;;;6.80;99.90;;;;;;5034321;28;20045;-89
2022/01/09 06:27:13;;;;;;;39.78;3.45;;;6.70;99.90;;;;;;5033360;28;20140;-88
2022/01/09 06:29:39;;;;;;;29.48;3.85;;;6.70;99.90;;;;;;5017101;28;20389;-90
2022/01/09 06:32:06;;;;;;;38.78;3.90;;;6.80;99.90;;;;;;5034163;28;20041;-90
2022/01/09 06:34:31;;;;;;;37.30;4.15;;;6.60;99.90;;;;;;5016999;28;20046;-92
2022/01/09 06:36:57;;;;;;;38.28;3.92;;;6.70;99.90;;;;;;5033567;28;20084;-90
2022/01/09 06:39:23;;;;;;;42.67;4.20;;;6.70;99.90;;;;;;5033495;28;20080;-88
2022/01/09 06:41:49;;;;;;;34.13;2.67;;;6.70;99.90;;;;;;5033625;28;20046;-89
2022/01/09 06:44:15;;;;;;;37.42;4.43;;;6.70;99.90;;;;;;5017067;28;20045;-90
2022/01/09 06:46:42;;;;;;;36.80;3.63;;;6.70;99.90;;;;;;5033241;28;20049;-89
2022/01/09 06:49:07;;;;;;;25.08;3.58;;;6.60;99.90;;;;;;5033552;28;20042;-88
2022/01/09 06:51:33;;;;;;;34.63;2.90;;;6.60;99.90;;;;;;5000867;28;20045;-90
2022/01/09 06:53:59;;;;;;;33.10;3.50;;;6.70;99.90;;;;;;5033484;28;20128;-90
2022/01/09 06:56:24;;;;;;;27.55;3.22;;;6.60;99.90;;;;;;5017041;28;20045;-90
2022/01/09 06:58:50;;;;;;;26.02;3.35;;;6.60;99.90;;;;;;5033333;28;20046;-91
2022/01/09 07:01:16;;;;;;;32.45;3.08;;;6.70;99.90;;;;;;5033477;28;20064;-90
2022/01/09 07:03:41;;;;;;;35.80;3.40;;;6.70;99.90;;;;;;5016907;28;20377;-88
2022/01/09 07:06:07;;;;;;;34.17;3.75;;;6.70;99.90;;;;;;5016672;28;20041;-90
2022/01/09 07:08:34;;;;;;;32.28;3.72;;;6.60;99.90;;;;;;5033476;28;20047;-91
2022/01/09 07:11:01;;;;;;;35.65;3.47;;;6.60;99.90;;;;;;5017074;28;20052;-91
2022/01/09 07:13:26;;;;;;;28.27;3.38;;;6.70;99.90;;;;;;5032823;28;20144;-91
2022/01/09 07:15:52;;;;;;;24.92;2.33;;;6.70;99.90;;;;;;5033414;28;20479;-92
2022/01/09 07:18:18;;;;;;;27.65;2.85;;;6.60;99.90;;;;;;5032924;28;20049;-92
2022/01/09 07:20:43;;;;;;;36.65;3.70;;;6.60;99.90;;;;;;5033244;28;20157;-92
2022/01/09 07:23:09;;;;;;;32.72;2.80;;;6.60;99.90;;;;;;5033395;28;20393;-89
2022/01/09 07:25:35;;;;;;;30.02;2.63;;;6.60;99.90;;;;;;5033068;28;20038;-90
2022/01/09 07:28:02;;;;;;;28.10;3.72;;;6.60;99.90;;;;;;5033098;28;20045;-90
2022/01/09 07:30:28;;;;;;;33.65;3.65;;;6.60;99.90;;;;;;5034190;28;20041;-90
2022/01/09 07:32:55;;;;;;;29.42;3.42;;;6.60;99.90;;;;;;5035647;28;20041;-89
2022/01/09 07:35:20;;;;;;;39.72;3.97;;;6.60;99.90;;;;;;5037372;28;20050;-91
2022/01/09 07:37:46;;;;;;;25.20;2.78;;;6.60;99.90;;;;;;5036914;28;20107;-91
2022/01/09 07:40:12;;;;;;;21.90;2.40;;;6.60;99.90;;;;;;5036682;28;20525;-90
2022/01/09 07:42:38;;;;;;;30.23;3.17;;;6.60;99.90;;;;;;5019957;28;20382;-91
2022/01/09 07:45:07;;;;;;;25.25;2.88;;;6.60;99.90;;;;;;5036340;28;20107;-89
2022/01/09 07:47:33;;;;;;;28.58;3.40;;;6.70;99.90;;;;;;5036250;28;20115;-90
2022/01/09 07:49:59;;;;;;;25.35;2.92;;;6.60;99.90;;;;;;5020127;28;20042;-90
2022/01/09 07:52:25;;;;;;;27.50;3.03;;;6.50;99.90;;;;;;5036708;28;20374;-90
2022/01/09 07:54:50;;;;;;;22.80;3.08;;;6.60;99.90;;;;;;5036425;28;20052;-90
2022/01/09 07:57:17;;;;;;;29.45;3.05;;;6.60;99.90;;;;;;5019841;28;20041;-92
2022/01/09 07:59:42;;;;;;;23.60;2.83;;;6.60;99.90;;;;;;5035928;28;20053;-90
2022/01/09 08:02:09;;;;;;;21.05;2.45;;;6.60;99.90;;;;;;5036229;28;20076;-90
2022/01/09 08:04:35;;;;;;;26.60;2.50;;;6.50;99.90;;;;;;5036304;28;20092;-91
2022/01/09 08:07:01;;;;;;;25.10;2.75;;;6.50;99.90;;;;;;5035849;28;20042;-89
2022/01/09 08:09:26;;;;;;;22.27;2.55;;;6.50;99.90;;;;;;5036164;28;20056;-91
2022/01/09 08:11:52;;;;;;;27.38;2.88;;;6.50;99.90;;;;;;5035963;28;20055;-91
2022/01/09 08:14:18;;;;;;;26.52;2.78;;;6.50;99.90;;;;;;5036029;28;20089;-89
2022/01/09 08:16:44;;;;;;;26.38;3.72;;;6.60;99.90;;;;;;5035830;28;20548;-90
2022/01/09 08:19:10;;;;;;;24.13;2.35;;;6.40;99.90;;;;;;5019370;28;20080;-92
2022/01/09 08:21:36;;;;;;;20.00;2.90;;;6.40;99.90;;;;;;5036238;28;20089;-90
2022/01/09 08:24:01;;;;;;;27.42;5.63;;;6.40;99.90;;;;;;5035802;28;20050;-91
2022/01/09 08:26:27;;;;;;;19.27;2.53;;;6.40;99.90;;;;;;5035694;28;20132;-89
2022/01/09 08:28:54;;;;;;;22.13;2.70;;;6.40;99.90;;;;;;5018737;28;20053;-90
2022/01/09 08:31:20;;;;;;;18.88;2.40;;;6.40;99.90;;;;;;5019184;28;20076;-91
2022/01/09 08:33:46;;;;;;;16.58;2.97;;;6.40;99.90;;;;;;5035770;28;20107;-90
2022/01/09 08:36:12;;;;;;;24.15;2.70;;;6.50;99.90;;;;;;5035500;28;20373;-90
2022/01/09 08:38:38;;;;;;;22.40;2.78;;;6.50;99.90;;;;;;5035381;28;20503;-90
2022/01/09 08:41:04;;;;;;;24.00;2.47;;;6.60;99.90;;;;;;5035563;28;20080;-89
2022/01/09 08:43:31;;;;;;;22.75;2.47;;;6.50;99.90;;;;;;5035143;28;20393;-92
2022/01/09 08:45:57;;;;;;;22.42;2.88;;;6.40;99.90;;;;;;5034438;28;20132;-92
2022/01/09 08:48:23;;;;;;;19.05;2.25;;;6.40;99.90;;;;;;5035592;28;20083;-91
2022/01/09 08:50:49;;;;;;;17.88;2.33;;;6.50;99.90;;;;;;5035806;28;20049;-90
2022/01/09 08:53:15;;;;;;;19.67;2.65;;;6.50;99.90;;;;;;5019396;28;20132;-91
2022/01/09 08:55:41;;;;;;;19.15;2.28;;;6.50;99.90;;;;;;5038509;28;20049;-90
2022/01/09 08:58:07;;;;;;;20.83;2.22;;;6.50;99.90;;;;;;5038041;28;20057;-91
2022/01/09 09:00:33;;;;;;;24.52;2.30;;;6.50;99.90;;;;;;5038881;28;20053;-90
2022/01/09 09:02:58;;;;;;;16.00;2.00;;;6.50;99.90;;;;;;5038594;28;20101;-90
2022/01/09 09:05:24;;;;;;;18.77;1.70;;;6.60;99.90;;;;;;5038863;28;20088;-90
2022/01/09 09:07:50;;;;;;;17.70;1.80;;;6.50;99.90;;;;;;5035724;28;20041;-91
2022/01/09 09:10:16;;;;;;;18.30;1.92;;;6.50;99.90;;;;;;5035641;28;20045;-90
2022/01/09 09:12:41;;;;;;;16.90;2.38;;;6.40;99.90;;;;;;5035185;28;20496;-89
2022/01/09 09:15:08;;;;;;;17.20;2.00;;;6.50;99.90;;;;;;5019762;28;20046;-91
2022/01/09 09:17:34;;;;;;;14.95;1.92;;;6.60;99.90;;;;;;5035710;28;20378;-91
2022/01/09 09:20:00;;;;;;;19.83;1.70;;;6.50;99.90;;;;;;5034414;28;20048;-74
2022/01/09 09:22:25;;;;;;;14.27;1.83;;;6.60;99.90;;;;;;5033969;28;20393;-75
2022/01/09 09:24:51;;;;;;;15.80;1.85;;;6.50;99.90;;;;;;5038411;28;20131;-80
2022/01/09 09:27:20;;;;;;;21.73;2.85;;;6.60;99.90;;;;;;5040438;28;20045;-74
2022/01/09 09:29:46;;;;;;;14.13;2.33;;;6.60;99.90;;;;;;5033183;28;20042;-74
2022/01/09 09:32:13;;;;;;;21.85;1.85;;;6.60;99.90;;;;;;5033563;28;20115;-74
2022/01/09 09:34:39;;;;;;;19.60;1.75;;;6.70;99.90;;;;;;5033179;28;20053;-73
2022/01/09 09:37:06;;;;;;;19.00;1.98;;;6.70;99.90;;;;;;5033546;28;20045;-73
2022/01/09 09:39:33;;;;;;;23.67;2.38;;;6.60;99.90;;;;;;5033574;28;20393;-74
2022/01/09 09:42:00;;;;;;;17.95;2.10;;;6.60;99.90;;;;;;5033348;28;20056;-73
2022/01/09 09:44:25;;;;;;;15.63;1.95;;;6.50;99.90;;;;;;5033523;28;20049;-75
2022/01/09 09:46:53;;;;;;;18.42;1.73;;;6.60;99.90;;;;;;5018246;28;20124;-77
2022/01/09 09:49:20;;;;;;;12.70;1.90;;;6.60;99.90;;;;;;5033654;28;20090;-76
2022/01/09 09:51:46;;;;;;;21.27;1.80;;;6.70;99.90;;;;;;5017072;28;20061;-77
2022/01/09 09:54:12;;;;;;;20.33;3.58;;;6.70;99.90;;;;;;5033390;28;20045;-73
2022/01/09 09:56:38;;;;;;;19.52;3.47;;;6.70;99.90;;;;;;5032853;28;20111;-74
2022/01/09 09:59:04;;;;;;;16.77;2.40;;;6.70;99.90;;;;;;5032704;28;20392;-73
2022/01/09 10:01:37;;;;;;;15.20;1.63;;;6.60;99.90;;;;;;5033114;28;20053;-74
2022/01/09 10:04:08;;;;;;;16.73;1.75;;;6.70;99.90;;;;;;5033008;28;20060;-74
2022/01/09 10:06:48;;;;;;;13.70;1.92;;;6.70;99.90;;;;;;5032618;28;20046;-74
2022/01/09 10:09:21;;;;;;;15.10;2.22;;;6.70;99.90;;;;;;5033040;28;20053;-74
2022/01/09 10:11:55;;;;;;;14.40;2.20;;;6.70;99.90;;;;;;5032597;28;20061;-75
2022/01/09 10:14:25;;;;;;;16.52;1.55;;;6.70;99.90;;;;;;5032929;28;20128;-76
2022/01/09 10:17:12;;;;;;;12.32;2.13;;;6.60;99.90;;;;;;5033103;28;20050;-76
2022/01/09 10:19:58;;;;;;;17.02;1.77;;;6.70;99.90;;;;;;5032857;28;20057;-74
2022/01/09 10:22:37;;;;;;;18.40;1.83;;;6.80;99.90;;;;;;5032845;28;20427;-74
2022/01/09 10:25:21;;;;;;;11.10;1.20;;;6.70;99.90;;;;;;5033716;28;20060;-73
2022/01/09 10:27:49;;;;;;;14.18;1.35;;;6.70;99.90;;;;;;5032392;28;20451;-73
2022/01/09 10:30:15;;;;;;;17.33;2.20;;;6.70;99.90;;;;;;5015922;28;20054;-75
2022/01/09 10:32:41;;;;;;;15.18;1.92;;;6.70;99.90;;;;;;5032337;28;20049;-76
2022/01/09 10:35:16;;;;;;;17.45;1.52;;;6.60;99.90;;;;;;5004879;28;20053;-73
2022/01/09 10:37:44;;;;;;;15.95;1.73;;;6.70;99.90;;;;;;5016089;28;20061;-73
2022/01/09 10:40:17;;;;;;;17.17;1.80;;;6.60;99.90;;;;;;5031779;28;20065;-72
2022/01/09 10:42:44;;;;;;;14.63;1.60;;;6.70;99.90;;;;;;5028034;28;20132;-73
2022/01/09 10:45:22;;;;;;;16.65;1.42;;;6.80;99.90;;;;;;5032466;28;20050;-73
2022/01/09 10:47:50;;;;;;;15.40;2.85;;;6.70;99.90;;;;;;5015995;28;20477;-73
2022/01/09 10:50:28;;;;;;;11.13;1.77;;;6.80;99.90;;;;;;5031939;28;20503;-74
2022/01/09 10:53:17;;;;;;;12.35;2.50;;;6.90;99.90;;;;;;5027572;28;20049;-73
2022/01/09 10:56:00;;;;;;;13.70;1.75;;;6.90;99.90;;;;;;5032337;28;20071;-73
2022/01/09 10:58:27;;;;;;;13.93;1.70;;;7.00;99.90;;;;;;5028512;28;20053;-73
2022/01/09 11:01:23;;;;;;;12.05;1.88;;;7.00;99.90;;;;;;4995929;28;20057;-73
2022/01/09 11:03:51;;;;;;;20.15;1.85;;;6.90;99.90;;;;;;5012621;28;20050;-73
2022/01/09 11:06:17;;;;;;;17.20;1.55;;;6.90;99.90;;;;;;5028812;28;20049;-72
2022/01/09 11:08:43;;;;;;;16.25;2.50;;;6.90;99.90;;;;;;4998803;28;20092;-75
2022/01/09 11:11:20;;;;;;;15.43;1.70;;;7.00;99.90;;;;;;5049783;28;20045;-75
2022/01/09 11:13:48;;;;;;;10.90;1.50;;;6.90;99.90;;;;;;5016177;28;20065;-74
2022/01/09 11:16:34;;;;;;;15.63;1.75;;;7.10;99.90;;;;;;5065751;28;20085;-77
2022/01/09 11:19:17;;;;;;;7.70;1.50;;;7.00;99.90;;;;;;5032481;28;20042;-75
2022/01/09 11:21:46;;;;;;;14.82;1.85;;;7.00;99.90;;;;;;5056477;28;20098;-75
2022/01/09 11:24:42;;;;;;;11.68;1.23;;;7.00;99.90;;;;;;5032656;28;20041;-75
2022/01/09 11:27:22;;;;;;;14.45;1.88;;;7.00;99.90;;;;;;5066745;28;20057;-75
2022/01/09 11:30:00;;;;;;;18.63;2.13;;;7.10;99.90;;;;;;5018709;28;20046;-74
2022/01/09 11:32:40;;;;;;;17.35;2.40;;;7.10;99.90;;;;;;5035752;28;20045;-74
2022/01/09 11:35:14;;;;;;;19.38;1.77;;;7.10;99.90;;;;;;5035838;28;20057;-74
2022/01/09 11:37:55;;;;;;;13.45;1.33;;;7.00;99.90;;;;;;5035899;28;20132;-75
2022/01/09 11:40:26;;;;;;;10.85;1.70;;;7.00;99.90;;;;;;5035703;28;20049;-74
2022/01/09 11:43:04;;;;;;;16.88;1.50;;;7.00;99.90;;;;;;5035977;28;20053;-74
2022/01/09 11:45:43;;;;;;;14.95;2.13;;;7.00;99.90;;;;;;5035646;28;20057;-75
2022/01/09 11:48:11;;;;;;;13.93;1.70;;;7.10;99.90;;;;;;5035619;28;20057;-75
2022/01/09 11:51:05;;;;;;;19.67;2.00;;;7.20;99.90;;;;;;5035710;28;20401;-75
2022/01/09 11:54:00;;;;;;;18.38;2.00;;;7.40;99.90;;;;;;5035493;28;20136;-75
2022/01/09 11:56:45;;;;;;;15.38;1.98;;;7.50;99.90;;;;;;5035532;28;20061;-74
2022/01/09 11:59:21;;;;;;;16.17;1.60;;;7.50;99.90;;;;;;5035025;28;20049;-74
2022/01/09 12:01:49;;;;;;;17.90;2.10;;;7.70;99.90;;;;;;5035426;28;20053;-74
2022/01/09 12:04:38;;;;;;;20.42;2.97;;;7.70;99.90;;;;;;5035330;28;20103;-73
2022/01/09 12:07:07;;;;;;;13.35;1.60;;;7.80;99.90;;;;;;5035087;28;20049;-74
2022/01/09 12:09:47;;;;;;;16.58;2.15;;;7.90;99.90;;;;;;5035410;28;20045;-74
2022/01/09 12:12:43;;;;;;;13.70;1.88;;;7.90;99.90;;;;;;5034744;28;20061;-74
2022/01/09 12:15:09;;;;;;;11.82;2.22;;;7.90;99.90;;;;;;5034829;28;20192;-74
2022/01/09 12:17:41;;;;;;;18.33;2.10;;;8.00;99.90;;;;;;5035082;28;20053;-74
2022/01/09 12:20:13;;;;;;;16.45;1.90;;;7.90;99.90;;;;;;5035034;28;20087;-74
2022/01/09 12:22:50;;;;;;;17.98;2.60;;;8.00;99.90;;;;;;5035107;28;20057;-73
2022/01/09 12:25:22;;;;;;;18.65;1.92;;;8.10;99.90;;;;;;5018566;28;20099;-74
2022/01/09 12:27:54;;;;;;;10.32;1.65;;;8.10;99.90;;;;;;5034781;28;20046;-74
2022/01/09 12:30:50;;;;;;;8.88;1.67;;;8.10;99.90;;;;;;5034449;28;20080;-74
2022/01/09 12:33:21;;;;;;;10.43;1.48;;;8.10;99.90;;;;;;5034949;28;20062;-73
2022/01/09 12:35:56;;;;;;;14.52;1.85;;;8.00;99.90;;;;;;5030204;28;20801;-75
2022/01/09 12:38:23;;;;;;;15.55;2.45;;;8.10;99.90;;;;;;5031076;28;20053;-76
2022/01/09 12:40:56;;;;;;;12.48;1.80;;;8.20;99.70;;;;;;5034421;28;20136;-75
2022/01/09 12:43:23;;;;;;;16.05;1.67;;;8.20;99.80;;;;;;5003182;28;20488;-76
2022/01/09 12:45:50;;;;;;;15.98;1.73;;;8.30;99.90;;;;;;5018046;28;20132;-76
2022/01/09 12:48:35;;;;;;;11.32;1.90;;;8.20;99.60;;;;;;5001929;28;20049;-74
2022/01/09 12:51:14;;;;;;;14.77;1.70;;;8.20;99.80;;;;;;5025644;28;20058;-75